George R. Pearkes — CGCX — position and weather

sailwx.info

Track history (hours):
 
Tides and Currents Weather Stations Pressure Air Temp Water Temp Dewpoint Dewpoint Depression Visibility Wind Speed Wind Dir Waves Ship Positions

George R. Pearkes

Last reported at 2018-Apr-23 19:00 UTC. Time now 2018-Apr-23 19:35 UTC.
Position N 47°36' W 053°12'.

; draft 6.2 m.

MMSI: 316058000.

Wind from 240 at 13 knots

Barometer 1020.3 mb
Air temperature 7.7 ° C
Dewpoint -6.7 ° C
Water temperature 2.7 ° C

Date/timePositionNaut miles runAvg speedWind from/ knotsBaromVisibWave heightAir tempDewpointWater temp
2018-Apr-23 19:00N 47°36' W 053°12'0 0.0 240 / 131020.3 7.7-6.7 2.7
2018-Apr-23 18:00N 47°36' W 053°12'7 7.2 250 / 121020.3 7.2-6.7 2.5
2018-Apr-23 17:00N 47°42' W 053°06'4 4.0 260 / 111020.5 6.3-6.1 2.4
2018-Apr-23 16:00N 47°42' W 053°12'4 4.0 250 / 121020.7 5.4-6.5
2018-Apr-23 15:00N 47°42' W 053°06'12 6.0 250 / 81021.2 4.4-5.2 2.2
2018-Apr-23 13:00N 47°54' W 053°06'8 8.0 310 / 41021.1 3.1-5.8 1.6
2018-Apr-23 12:00N 47°54' W 052°54'1212.0 300 / 91020.8 1.7-6.0 1.6
2018-Apr-23 11:00N 48°06' W 052°54'4 4.0 280 / 81020.2 -0.2-4.6 1.6
2018-Apr-23 10:00N 48°06' W 052°48'1312.6 300 / 81019.5 0.2-3.8 1.5
2018-Apr-23 09:00N 48°18' W 052°42'4 4.0 300 / 81018.6 -0.7-3.5 0.8
2018-Apr-23 08:00N 48°18' W 052°36'0 0.0 310 / 91018.2 -1.0-3.6 0.7
2018-Apr-23 07:00N 48°18' W 052°36'0 0.0 300 / 101018.1 -0.8-3.0
2018-Apr-23 06:00N 48°18' W 052°36'0 0.0 300 / 81017.7 -1.2-3.2 0.9
2018-Apr-23 05:00N 48°18' W 052°36'0 0.0 340 / 61017.3 -1.0-3.7 0.9
2018-Apr-23 04:00N 48°18' W 052°36'0 0.0 340 / 61017.4 -1.0-3.7 0.9
2018-Apr-23 03:00N 48°18' W 052°36'0 0.0 360 / 61017.2 -0.8-3.8 1.1
2018-Apr-23 02:00N 48°18' W 052°36'0 0.0 030 / 71017.0 -0.7-4.7 1.0
2018-Apr-23 01:00N 48°18' W 052°36'1010.0 030 / 51016.7 -0.4-4.6 1.1
2018-Apr-23 00:00N 48°12' W 052°48'4 4.0 070 / 141016.5 -0.1-3.6 1.7
2018-Apr-22 23:00N 48°12' W 052°54'1818.4 080 / 81015.9 -0.0-3.0 1.6
2018-Apr-22 22:00N 47°54' W 052°48'6 6.0 060 / 161014.6 0.4-1.7 1.6
2018-Apr-22 21:00N 47°48' W 052°48'1414.5 110 / 111014.2 1.1-1.3 1.9
2018-Apr-22 20:00N 47°36' W 052°36'4 4.0 140 / 91013.9 1.6-0.9 1.8
2018-Apr-22 19:00N 47°36' W 052°42'0 0.0 280 / 41013.5 7.1-2.6
2018-Apr-22 18:00N 47°36' W 052°42'0 0.0 230 / 81013.5 6.8-2.7
2018-Apr-22 17:00N 47°36' W 052°42'0 0.0 250 / 101013.3 5.1-3.3
2018-Apr-22 16:00N 47°36' W 052°42'0 0.0 250 / 111013.1 4.5-3.3
2018-Apr-22 15:00N 47°36' W 052°42'0 0.0 260 / 121013.2 3.6-3.2
2018-Apr-22 14:00N 47°36' W 052°42'0 0.0 260 / 81012.9 3.0-2.9
2018-Apr-22 13:00N 47°36' W 052°42'0 0.0 260 / 131012.8 2.3-3.3
2018-Apr-22 12:00N 47°36' W 052°42'0 0.0 250 / 141012.4 2.1-3.4
2018-Apr-22 11:00N 47°36' W 052°42'0 0.0 250 / 121012.0 1.5-3.0
2018-Apr-22 10:00N 47°36' W 052°42'0 0.0 250 / 91011.7 1.2-2.5
2018-Apr-22 09:00N 47°36' W 052°42'0 0.0 240 / 61010.9 1.8-2.2
2018-Apr-22 08:00N 47°36' W 052°42'0 0.0 250 / 71010.5 1.6-2.1
2018-Apr-22 07:00N 47°36' W 052°42'0 0.0 250 / 91010.1 1.6-1.8
2018-Apr-22 06:00N 47°36' W 052°42'0 0.0 240 / 71009.6 1.8-1.5
2018-Apr-22 05:00N 47°36' W 052°42'0 0.0 240 / 81009.2 1.9-1.6
2018-Apr-22 04:00N 47°36' W 052°42'0 0.0 240 / 61008.9 2.0-1.7
2018-Apr-22 03:00N 47°36' W 052°42'0 0.0 240 / 81008.5 1.8-1.8
2018-Apr-22 02:00N 47°36' W 052°42'0 0.0 230 / 71008.0 2.1-1.8
2018-Apr-22 01:00N 47°36' W 052°42'0 0.0 240 / 101007.8 2.1-2.0
2018-Apr-22 00:00N 47°36' W 052°42'0 0.0 230 / 111007.7 2.4-2.1
2018-Apr-21 23:00N 47°36' W 052°42'0 0.0 240 / 111006.7 2.8-2.2
2018-Apr-21 22:00N 47°36' W 052°42'0 0.0 240 / 121006.1 3.4-2.4
2018-Apr-21 21:00N 47°36' W 052°42'0 0.0 230 / 111005.5 5.3-1.9
2018-Apr-21 20:00N 47°36' W 052°42'0 0.0 230 / 111004.8 5.4-1.9
2018-Apr-21 19:00N 47°36' W 052°42'0 0.0 230 / 111004.4 5.4-1.9
2018-Apr-21 18:00N 47°36' W 052°42'0 0.0 250 / 141004.0 5.0-2.2
2018-Apr-21 17:00N 47°36' W 052°42'0 0.0 240 / 131003.8 6.0-2.2
2018-Apr-21 16:00N 47°36' W 052°42'0 0.0 250 / 171003.5 5.3-2.0
2018-Apr-21 15:00N 47°36' W 052°42'0 0.0 250 / 151003.5 5.0-1.8
2018-Apr-21 14:00N 47°36' W 052°42'0 0.0 250 / 141003.3 3.8-1.9
2018-Apr-21 13:00N 47°36' W 052°42'0 0.0 240 / 121002.7 4.6-1.6
2018-Apr-21 12:00N 47°36' W 052°42'0 0.0 240 / 91002.5 3.3-1.4
2018-Apr-21 11:00N 47°36' W 052°42'0 0.0 230 / 121002.4 1.8-1.8
2018-Apr-21 10:00N 47°36' W 052°42'0 0.0 230 / 101002.0 1.4-1.6
2018-Apr-21 09:00N 47°36' W 052°42'0 0.0 230 / 81001.5 1.1-1.6
2018-Apr-21 08:00N 47°36' W 052°42'0 0.0 230 / 81001.2 1.3-1.5
2018-Apr-21 07:00N 47°36' W 052°42'0 0.0 220 / 81001.1 1.5-0.8
2018-Apr-21 06:00N 47°36' W 052°42'0 0.0 230 / 91000.6 1.9-0.9
2018-Apr-21 05:00N 47°36' W 052°42'0 0.0 220 / 101000.1 1.9-0.8
2018-Apr-21 04:00N 47°36' W 052°42'0 0.0 230 / 111000.5 2.2-0.7
2018-Apr-21 03:00N 47°36' W 052°42'0 0.0 230 / 101000.8 2.7-0.1
2018-Apr-21 02:00N 47°36' W 052°42'0 0.0 220 / 101000.7 2.9 0.2
2018-Apr-21 01:00N 47°36' W 052°42'0 0.0 220 / 101001.3 3.2 0.6
2018-Apr-21 00:00N 47°36' W 052°42'317.2 220 / 71001.5 3.3 0.9
2018-Apr-20 23:51N 47°33' W 052°42'3 3.0
2018-Apr-20 23:00N 47°36' W 052°42'0 0.0 220 / 71001.9 4.2 1.7
2018-Apr-20 22:00N 47°36' W 052°42'0 0.0 230 / 101001.8 5.2 2.4
2018-Apr-20 21:00N 47°36' W 052°42'0 0.0 360 / 21001.6 0.9 0.9
2018-Apr-20 20:00N 47°36' W 052°42'0 0.0 040 / 41002.2 0.3 0.2
2018-Apr-20 18:00N 47°36' W 052°42'0 0.0 020 / 71003.5 -0.3-0.5
2018-Apr-20 17:00N 47°36' W 052°42'0 0.0 050 / 91004.3 0.2-0.1
2018-Apr-20 16:00N 47°36' W 052°42'0 0.0 050 / 101004.4 -0.0-0.2
2018-Apr-20 15:00N 47°36' W 052°42'0 0.0 050 / 81006.3 -0.1-0.4
2018-Apr-20 14:00N 47°36' W 052°42'0 0.0 050 / 111006.5 -0.1-0.5
2018-Apr-20 13:00N 47°36' W 052°42'0 0.0 050 / 91007.6 -0.1-0.4
2018-Apr-20 12:00N 47°36' W 052°42'0 0.0 050 / 101007.6 0.2-0.2
2018-Apr-20 11:00N 47°36' W 052°42'0 0.0 060 / 61008.2 1.2-0.0
2018-Apr-20 10:00N 47°36' W 052°42'0 0.0 060 / 61008.9 1.1-0.0
2018-Apr-20 08:00N 47°36' W 052°42'0 0.0 230 / 11009.6 1.5 0.2
2018-Apr-20 07:00N 47°36' W 052°42'0 0.0 230 / 31009.7 2.4-0.2
2018-Apr-20 06:00N 47°36' W 052°42'0 0.0 220 / 41010.2 2.4-0.2
2018-Apr-20 05:00N 47°36' W 052°42'0 0.0 240 / 21009.9 1.7-0.6
2018-Apr-20 04:00N 47°36' W 052°42'0 0.0 210 / 11009.6 2.5-0.1
2018-Apr-20 03:00N 47°36' W 052°42'320.2 210 / 21009.8 3.5 0.2
2018-Apr-20 02:52N 47°33' W 052°42'0 0.1
2018-Apr-20 02:23N 47°34' W 052°42'2 6.4
2018-Apr-20 02:00N 47°36' W 052°42'1414.5 250 / 141008.8 2.9-0.1 0.9
2018-Apr-20 01:00N 47°24' W 052°30'1312.7 210 / 101009.7 1.6-0.0 1.0
2018-Apr-20 00:00N 47°12' W 052°24'1818.5 250 / 141009.9 1.3 0.2 1.1
2018-Apr-19 23:00N 46°54' W 052°18'1312.7 220 / 261009.7 0.9 0.3 1.4
2018-Apr-19 22:00N 46°42' W 052°12'1312.7 220 / 251009.4 0.9 0.2 1.4
2018-Apr-19 21:00N 46°30' W 052°06'1212.0 220 / 251009.1 1.8 0.5 1.8
2018-Apr-19 20:00N 46°18' W 052°06'1514.6 220 / 221009.2 2.4 0.9 1.9
2018-Apr-19 19:00N 46°06' W 051°54'1212.0 220 / 261009.8 2.5 1.0 2.8
2018-Apr-19 18:00N 45°54' W 051°54'1312.7 230 / 251010.0 2.9 1.0 3.2
2018-Apr-19 17:00N 45°42' W 051°48'1818.5 230 / 211010.1 2.8 1.1 3.0
2018-Apr-19 16:00N 45°24' W 051°42'1312.7 240 / 221010.1 3.4 1.0 3.5
2018-Apr-19 15:00N 45°12' W 051°36'1818.5 240 / 141010.0 3.3 1.8 3.3
2018-Apr-19 14:00N 44°54' W 051°30'0 0.0 240 / 201009.7 3.9 2.8 2.8
2018-Apr-19 13:00N 44°54' W 051°30'0 0.0 220 / 151009.4 3.7 3.6 2.9
2018-Apr-19 12:00N 44°54' W 051°30'1514.7 220 / 131008.2 3.7 3.5 2.8
2018-Apr-19 11:00N 45°06' W 051°42'1010.4 190 / 71008.0 3.0 2.9 3.4
2018-Apr-19 10:00N 45°12' W 051°54'1514.7 210 / 81007.7 3.6 3.3 3.5
2018-Apr-19 09:00N 45°24' W 052°06'1414.0 210 / 161006.6 3.3 2.8 3.3
2018-Apr-19 08:00N 45°30' W 052°24'1514.6 220 / 141005.6 3.1 2.7 3.1
2018-Apr-19 07:00N 45°42' W 052°36'1514.6 220 / 211005.2 3.1 2.7 3.0
2018-Apr-19 06:00N 45°54' W 052°48'1312.7 220 / 201004.7 3.1 2.5 2.7
2018-Apr-19 05:00N 46°06' W 052°54'1413.8 230 / 241004.6 2.7 2.1 1.7
2018-Apr-19 04:00N 46°12' W 053°12'1514.6 210 / 231003.5 1.8 1.2 2.0
2018-Apr-19 03:00N 46°24' W 053°24'1010.2 230 / 191002.9 1.9 1.5 2.2
2018-Apr-19 02:00N 46°30' W 053°36'8 8.3 250 / 101002.7 1.7 1.2 2.3
2018-Apr-19 01:00N 46°30' W 053°48'1212.0 240 / 191001.8 1.7 1.1 2.4
2018-Apr-19 00:00N 46°42' W 053°48'7 7.3 240 / 231001.2 1.9 1.4 2.5
2018-Apr-18 23:00N 46°48' W 053°42'6 6.0 270 / 131000.5 1.9 1.5 2.8
2018-Apr-18 22:00N 46°54' W 053°42'1312.7 250 / 23999.3 4.2 0.7 3.2
2018-Apr-18 21:00N 47°06' W 053°36'0 0.0 220 / 14998.5 2.4 2.3 4.0
2018-Apr-18 20:00N 47°06' W 053°36'0 0.0 200 / 16998.8 3.0 3.0
2018-Apr-18 19:00N 47°06' W 053°36'0 0.0 200 / 17998.8 4.0 3.9
2018-Apr-18 18:00N 47°06' W 053°36'0 0.0 230 / 13999.1 5.9 5.7
2018-Apr-18 17:00N 47°06' W 053°36'0 0.0 200 / 51000.1 7.2 6.7
2018-Apr-18 16:00N 47°06' W 053°36'0 0.0 150 / 211000.8 7.1 6.3
2018-Apr-18 14:00N 47°06' W 053°36'0 0.0 140 / 251003.1 4.1 3.5
2018-Apr-18 13:00N 47°06' W 053°36'0 0.0 120 / 321003.9 3.3 2.8 3.6
2018-Apr-18 12:00N 47°06' W 053°36'0 0.0 120 / 301005.8 2.2 1.6
2018-Apr-18 09:00N 47°06' W 053°36'0 0.0 110 / 131012.1 1.4-0.3
2018-Apr-18 08:00N 47°06' W 053°36'0 0.0 130 / 61014.4 1.5-1.2
2018-Apr-18 07:00N 47°06' W 053°36'0 0.0 150 / 131015.3 2.4-5.3
2018-Apr-18 06:00N 47°06' W 053°36'0 0.0 140 / 101017.0 2.2-6.0
2018-Apr-18 05:00N 47°06' W 053°36'0 0.0 150 / 71017.9 1.7-5.3
2018-Apr-18 04:00N 47°06' W 053°36'0 0.0 140 / 71018.6 1.2-5.7
2018-Apr-18 03:00N 47°06' W 053°36'0 0.0 120 / 71019.8 0.9-4.5
2018-Apr-18 02:00N 47°06' W 053°36'0 0.0 110 / 91020.4 0.8-3.5
2018-Apr-18 01:00N 47°06' W 053°36'0 0.0 120 / 71021.3 0.8-3.4
2018-Apr-18 00:00N 47°06' W 053°36'0 0.0 120 / 111021.4 1.1-3.4 4.9
2018-Apr-17 23:00N 47°06' W 053°36'6 6.0 140 / 51021.5 2.8-8.0
2018-Apr-17 22:00N 47°00' W 053°36'7 3.6 170 / 81021.6 1.0-3.3 3.9
2018-Apr-17 20:00N 46°54' W 053°42'6 6.0 220 / 131022.0 0.7-2.8 3.7
2018-Apr-17 19:00N 46°48' W 053°42'1312.7 230 / 131023.0 1.0-3.4 3.3
2018-Apr-17 18:00N 46°36' W 053°36'1413.7 240 / 111022.8 0.9-4.2 3.4
2018-Apr-17 17:00N 46°42' W 053°18'0 0.0 230 / 191022.1 1.1-4.2 3.5
2018-Apr-17 16:00N 46°42' W 053°18'10 5.1 220 / 141022.9 1.9-5.5 3.5
2018-Apr-17 14:00N 46°36' W 053°30'0 0.0 280 / 121023.9 1.7-7.4 2.9
2018-Apr-17 13:00N 46°36' W 053°30'8 8.2 280 / 131024.3 0.1-5.0 2.9
2018-Apr-17 12:00N 46°36' W 053°42'4 4.1 290 / 101024.2 -0.3-5.3 2.9
2018-Apr-17 11:00N 46°36' W 053°36'1010.2 300 / 91024.2 -0.0-4.7 3.0
2018-Apr-17 10:00N 46°42' W 053°24'4 4.1 280 / 41024.4 -0.8-4.7 3.1
2018-Apr-17 09:00N 46°42' W 053°18'0 0.0 340 / 11024.4 -3.0-5.2
2018-Apr-17 08:00N 46°42' W 053°18'0 0.0 010 / 11024.4 -3.2-5.5
2018-Apr-17 07:00N 46°42' W 053°18'0 0.0 040 / 51024.5 -2.5-4.9
2018-Apr-17 06:00N 46°42' W 053°18'0 0.0 340 / 101024.3 -1.2-5.0
2018-Apr-17 05:00N 46°42' W 053°18'0 0.0 340 / 51024.7 -1.0-4.0 3.7
2018-Apr-17 04:00N 46°42' W 053°18'0 0.0 310 / 101024.6 -0.1-3.4 3.6
2018-Apr-17 03:00N 46°42' W 053°18'7 7.3 360 / 41024.6 -0.1-3.7
2018-Apr-17 02:00N 46°36' W 053°24'8 8.2 300 / 141025.2 0.4-3.2 2.9
2018-Apr-17 01:00N 46°36' W 053°36'1413.7 290 / 131025.9 0.9-2.1 2.9
2018-Apr-17 00:00N 46°42' W 053°54'1817.5 290 / 51026.0 1.3-2.8 3.0
2018-Apr-16 23:00N 46°48' W 054°18'7 7.3 290 / 171025.5 1.5-3.1 2.6
2018-Apr-16 22:00N 46°54' W 054°12'0 0.0 280 / 141025.4 1.6-3.2 3.2
2018-Apr-16 21:00N 46°54' W 054°12'4 4.1 280 / 141025.4 2.4-3.3 2.6
2018-Apr-16 20:00N 46°54' W 054°18'0 0.0 280 / 131025.3 2.4-3.5 2.8
2018-Apr-16 19:00N 46°54' W 054°18'0 0.0 290 / 141025.9 2.2-3.4 3.0
2018-Apr-16 18:00N 46°54' W 054°18'0 0.0 280 / 131026.5 1.7-3.4 3.0
2018-Apr-16 17:00N 46°54' W 054°18'4 4.1 290 / 181026.5 1.0-3.8 2.9
2018-Apr-16 16:00N 46°54' W 054°12'7 7.3 300 / 211026.9 1.0-3.9 3.0
2018-Apr-16 15:00N 46°48' W 054°18'1212.3 310 / 181027.1 0.8-3.9 2.9
2018-Apr-16 14:00N 46°48' W 054°00'4 4.1 310 / 51028.3 1.4-3.2 3.0
2018-Apr-16 13:00N 46°48' W 054°06'1010.2 300 / 211027.5 -0.3-4.1 3.0
2018-Apr-16 12:00N 46°54' W 053°54'0 0.0 290 / 201028.1 0.5-6.0
2018-Apr-16 11:00N 46°54' W 053°54'0 0.0 300 / 161028.5 -0.3-5.8 3.2
2018-Apr-16 10:00N 46°54' W 053°54'7 7.3 300 / 41028.7 -1.1-5.0 3.0
2018-Apr-16 09:00N 46°48' W 053°48'6 6.0 300 / 131028.9 -1.0-4.3 3.1
2018-Apr-16 08:00N 46°54' W 053°48'0 0.0 320 / 161028.7 -0.4-4.3 3.0
2018-Apr-16 07:00N 46°54' W 053°48'6 6.0 330 / 161028.2 -0.4-5.2 3.0
2018-Apr-16 06:00N 46°48' W 053°48'6 6.0 330 / 171028.2 -0.1-4.9 3.0
2018-Apr-16 05:00N 46°42' W 053°48'4 4.1 350 / 171028.1 0.1-5.3 3.0
2018-Apr-16 04:00N 46°42' W 053°54'7 7.3 350 / 241028.0 0.4-5.4 3.0
2018-Apr-16 03:00N 46°48' W 053°48'6 6.0 020 / 51027.5 0.6-4.7 3.0
2018-Apr-16 02:00N 46°54' W 053°48'0 0.0 010 / 61026.9 1.0-4.8 3.1
2018-Apr-16 01:00N 46°54' W 053°48'1312.7 350 / 221025.3 0.6-5.4 2.9
2018-Apr-16 00:00N 46°42' W 053°54'1312.7 360 / 281024.8 0.8-5.3 2.8
2018-Apr-15 23:00N 46°30' W 054°00'6 6.0 340 / 221024.6 1.1-3.9 2.8
2018-Apr-15 22:00N 46°36' W 054°00'1312.7 350 / 161023.4 2.0-3.8 2.9
2018-Apr-15 21:00N 46°48' W 053°54'0 0.0 340 / 261021.7 1.9-5.5 2.9
2018-Apr-15 20:00N 46°48' W 053°54'6 6.0 340 / 231019.7 2.5-5.5 2.9
2018-Apr-15 19:00N 46°54' W 053°54'4 4.1 330 / 261018.5 2.7-6.1 3.1
2018-Apr-15 18:00N 46°54' W 053°48'8 8.2 320 / 271017.4 2.2-5.8 3.2
2018-Apr-15 17:00N 46°54' W 053°36'4 4.1 300 / 241016.7 1.4-5.7 3.5
2018-Apr-15 16:00N 46°54' W 053°30'13 6.3 290 / 201016.7 0.1-7.4 3.5
2018-Apr-15 14:00N 47°06' W 053°36'0 0.0 300 / 181015.3 -0.9-9.0
2018-Apr-15 13:00N 47°06' W 053°36'0 0.0 320 / 201014.5 -2.2-9.6
2018-Apr-15 12:00N 47°06' W 053°36'0 0.0 300 / 181013.7 -3.1-9.9
2018-Apr-15 11:00N 47°06' W 053°36'0 0.0 300 / 251012.2 -3.5-10.1
2018-Apr-15 10:00N 47°06' W 053°36'0 0.0 310 / 201011.9 -4.1-10.5
2018-Apr-15 09:00N 47°06' W 053°36'0 0.0 320 / 121011.0 -4.0-9.8
2018-Apr-15 08:00N 47°06' W 053°36'0 0.0 300 / 251007.6 -3.6-9.4
2018-Apr-15 07:00N 47°06' W 053°36'0 0.0 290 / 321006.8 -3.4-10.5
2018-Apr-15 06:00N 47°06' W 053°36'0 0.0 300 / 301005.8 -3.1-9.7
2018-Apr-15 05:00N 47°06' W 053°36'0 0.0 300 / 281005.1 -3.1-9.1
2018-Apr-15 04:00N 47°06' W 053°36'0 0.0 290 / 301003.7 -3.1-9.2
2018-Apr-15 03:00N 47°06' W 053°36'0 0.0 300 / 291002.8 -3.2-9.2
2018-Apr-15 02:00N 47°06' W 053°36'0 0.0 280 / 301002.3 -3.3-9.7
2018-Apr-15 01:00N 47°06' W 053°36'0 0.0 290 / 321002.3 -3.1-10.2
2018-Apr-15 00:00N 47°06' W 053°36'0 0.0 290 / 301001.8 -2.8-11.0
2018-Apr-14 23:00N 47°06' W 053°36'0 0.0 280 / 321000.0 -2.1-10.0
2018-Apr-14 22:00N 47°06' W 053°36'0 0.0 280 / 27999.4 -0.3-6.8
2018-Apr-14 21:00N 47°06' W 053°36'0 0.0 270 / 27998.9 0.2-2.2
2018-Apr-14 20:00N 47°06' W 053°36'0 0.0 240 / 28998.2 2.8 1.0
2018-Apr-14 19:00N 47°06' W 053°36'0 0.0 220 / 28999.1 2.5 0.7
2018-Apr-14 18:00N 47°06' W 053°36'0 0.0 210 / 281001.3 2.3 0.5
2018-Apr-14 17:00N 47°06' W 053°36'0 0.0 210 / 251003.6 1.5 0.5
2018-Apr-14 16:00N 47°06' W 053°36'0 0.0 220 / 191005.2 1.8 0.4
2018-Apr-14 15:00N 47°06' W 053°36'0 0.0 240 / 161006.3 2.6-0.0
2018-Apr-14 14:00N 47°06' W 053°36'0 0.0 260 / 201007.1 1.9-0.9
2018-Apr-14 13:00N 47°06' W 053°36'0 0.0 260 / 161007.7 1.1-0.9
2018-Apr-14 12:00N 47°06' W 053°36'0 0.0 260 / 141008.1 1.0-0.9 4.1
2018-Apr-14 11:00N 47°06' W 053°36'1514.5 260 / 211007.4 0.7-1.0 3.5
2018-Apr-14 10:00N 46°54' W 053°48'6 6.0 260 / 221007.5 0.5-0.6 3.4
2018-Apr-14 09:00N 46°48' W 053°48'0 0.0 280 / 291007.1 0.4 0.1 3.0
2018-Apr-14 08:00N 46°48' W 053°48'6 6.0 270 / 281006.4 0.5 0.3 3.1
2018-Apr-14 07:00N 46°54' W 053°48'0 0.0 260 / 241006.5 0.7 0.6 3.1
2018-Apr-14 06:00N 46°54' W 053°48'6 6.0 240 / 191006.4 1.4 1.3 3.0
2018-Apr-14 05:00N 46°48' W 053°48'0 0.0 220 / 191006.8 1.4 1.3 3.1
2018-Apr-14 04:00N 46°48' W 053°48'1312.7 200 / 61007.9 1.7 1.7 3.0
2018-Apr-14 03:00N 46°36' W 053°54'0 0.0 170 / 101008.7 0.8 0.7 2.9
2018-Apr-14 02:00N 46°36' W 053°54'1212.4 150 / 301009.5 0.4 0.4 2.9
2018-Apr-14 01:00N 46°36' W 054°12'8 8.2 150 / 331011.0 0.2 0.1 2.9
2018-Apr-14 00:00N 46°36' W 054°24'1010.2 140 / 331011.6 -0.2-0.3 2.6
2018-Apr-13 23:00N 46°42' W 054°36'4 4.1 150 / 311013.3 -0.3-0.4 2.9
2018-Apr-13 22:00N 46°42' W 054°42'8 8.2 150 / 311014.7 -0.4-0.4 3.1
2018-Apr-13 21:00N 46°42' W 054°54'8 8.2
2018-Apr-13 20:00N 46°42' W 055°06'1212.3 150 / 221017.2 0.9-1.2 3.2
2018-Apr-13 19:00N 46°42' W 055°24'   160 / 231018.1 1.0-0.9 3.3
Track history (hours):
 
Tides and Currents Weather Stations Pressure Air Temp Water Temp Dewpoint Dewpoint Depression Visibility Wind Speed Wind Dir Waves Ship Positions

George R. Pearkes

Last reported at 2018-Apr-23 19:00 UTC. Time now 2018-Apr-23 19:35 UTC.
Position N 47°36' W 053°12'.

; draft 6.2 m.

MMSI: 316058000.

Wind from 240 at 13 knots

Barometer 1020.3 mb
Air temperature 7.7 ° C
Dewpoint -6.7 ° C
Water temperature 2.7 ° C

Date/timePositionNaut miles runAvg speedWind from/ knotsBaromVisibWave heightAir tempDewpointWater temp
2018-Apr-23 19:00N 47°36' W 053°12'0 0.0 240 / 131020.3 7.7-6.7 2.7
2018-Apr-23 18:00N 47°36' W 053°12'7 7.2 250 / 121020.3 7.2-6.7 2.5
2018-Apr-23 17:00N 47°42' W 053°06'4 4.0 260 / 111020.5 6.3-6.1 2.4
2018-Apr-23 16:00N 47°42' W 053°12'4 4.0 250 / 121020.7 5.4-6.5
2018-Apr-23 15:00N 47°42' W 053°06'12 6.0 250 / 81021.2 4.4-5.2 2.2
2018-Apr-23 13:00N 47°54' W 053°06'8 8.0 310 / 41021.1 3.1-5.8 1.6
2018-Apr-23 12:00N 47°54' W 052°54'1212.0 300 / 91020.8 1.7-6.0 1.6
2018-Apr-23 11:00N 48°06' W 052°54'4 4.0 280 / 81020.2 -0.2-4.6 1.6
2018-Apr-23 10:00N 48°06' W 052°48'1312.6 300 / 81019.5 0.2-3.8 1.5
2018-Apr-23 09:00N 48°18' W 052°42'4 4.0 300 / 81018.6 -0.7-3.5 0.8
2018-Apr-23 08:00N 48°18' W 052°36'0 0.0 310 / 91018.2 -1.0-3.6 0.7
2018-Apr-23 07:00N 48°18' W 052°36'0 0.0 300 / 101018.1 -0.8-3.0
2018-Apr-23 06:00N 48°18' W 052°36'0 0.0 300 / 81017.7 -1.2-3.2 0.9
2018-Apr-23 05:00N 48°18' W 052°36'0 0.0 340 / 61017.3 -1.0-3.7 0.9
2018-Apr-23 04:00N 48°18' W 052°36'0 0.0 340 / 61017.4 -1.0-3.7 0.9
2018-Apr-23 03:00N 48°18' W 052°36'0 0.0 360 / 61017.2 -0.8-3.8 1.1
2018-Apr-23 02:00N 48°18' W 052°36'0 0.0 030 / 71017.0 -0.7-4.7 1.0
2018-Apr-23 01:00N 48°18' W 052°36'1010.0 030 / 51016.7 -0.4-4.6 1.1
2018-Apr-23 00:00N 48°12' W 052°48'4 4.0 070 / 141016.5 -0.1-3.6 1.7
2018-Apr-22 23:00N 48°12' W 052°54'1818.4 080 / 81015.9 -0.0-3.0 1.6
2018-Apr-22 22:00N 47°54' W 052°48'6 6.0 060 / 161014.6 0.4-1.7 1.6
2018-Apr-22 21:00N 47°48' W 052°48'1414.5 110 / 111014.2 1.1-1.3 1.9
2018-Apr-22 20:00N 47°36' W 052°36'4 4.0 140 / 91013.9 1.6-0.9 1.8
2018-Apr-22 19:00N 47°36' W 052°42'0 0.0 280 / 41013.5 7.1-2.6
2018-Apr-22 18:00N 47°36' W 052°42'0 0.0 230 / 81013.5 6.8-2.7
2018-Apr-22 17:00N 47°36' W 052°42'0 0.0 250 / 101013.3 5.1-3.3
2018-Apr-22 16:00N 47°36' W 052°42'0 0.0 250 / 111013.1 4.5-3.3
2018-Apr-22 15:00N 47°36' W 052°42'0 0.0 260 / 121013.2 3.6-3.2
2018-Apr-22 14:00N 47°36' W 052°42'0 0.0 260 / 81012.9 3.0-2.9
2018-Apr-22 13:00N 47°36' W 052°42'0 0.0 260 / 131012.8 2.3-3.3
2018-Apr-22 12:00N 47°36' W 052°42'0 0.0 250 / 141012.4 2.1-3.4
2018-Apr-22 11:00N 47°36' W 052°42'0 0.0 250 / 121012.0 1.5-3.0
2018-Apr-22 10:00N 47°36' W 052°42'0 0.0 250 / 91011.7 1.2-2.5
2018-Apr-22 09:00N 47°36' W 052°42'0 0.0 240 / 61010.9 1.8-2.2
2018-Apr-22 08:00N 47°36' W 052°42'0 0.0 250 / 71010.5 1.6-2.1
2018-Apr-22 07:00N 47°36' W 052°42'0 0.0 250 / 91010.1 1.6-1.8
2018-Apr-22 06:00N 47°36' W 052°42'0 0.0 240 / 71009.6 1.8-1.5
2018-Apr-22 05:00N 47°36' W 052°42'0 0.0 240 / 81009.2 1.9-1.6
2018-Apr-22 04:00N 47°36' W 052°42'0 0.0 240 / 61008.9 2.0-1.7
2018-Apr-22 03:00N 47°36' W 052°42'0 0.0 240 / 81008.5 1.8-1.8
2018-Apr-22 02:00N 47°36' W 052°42'0 0.0 230 / 71008.0 2.1-1.8
2018-Apr-22 01:00N 47°36' W 052°42'0 0.0 240 / 101007.8 2.1-2.0
2018-Apr-22 00:00N 47°36' W 052°42'0 0.0 230 / 111007.7 2.4-2.1
2018-Apr-21 23:00N 47°36' W 052°42'0 0.0 240 / 111006.7 2.8-2.2
2018-Apr-21 22:00N 47°36' W 052°42'0 0.0 240 / 121006.1 3.4-2.4
2018-Apr-21 21:00N 47°36' W 052°42'0 0.0 230 / 111005.5 5.3-1.9
2018-Apr-21 20:00N 47°36' W 052°42'0 0.0 230 / 111004.8 5.4-1.9
2018-Apr-21 19:00N 47°36' W 052°42'0 0.0 230 / 111004.4 5.4-1.9
2018-Apr-21 18:00N 47°36' W 052°42'0 0.0 250 / 141004.0 5.0-2.2
2018-Apr-21 17:00N 47°36' W 052°42'0 0.0 240 / 131003.8 6.0-2.2
2018-Apr-21 16:00N 47°36' W 052°42'0 0.0 250 / 171003.5 5.3-2.0
2018-Apr-21 15:00N 47°36' W 052°42'0 0.0 250 / 151003.5 5.0-1.8
2018-Apr-21 14:00N 47°36' W 052°42'0 0.0 250 / 141003.3 3.8-1.9
2018-Apr-21 13:00N 47°36' W 052°42'0 0.0 240 / 121002.7 4.6-1.6
2018-Apr-21 12:00N 47°36' W 052°42'0 0.0 240 / 91002.5 3.3-1.4
2018-Apr-21 11:00N 47°36' W 052°42'0 0.0 230 / 121002.4 1.8-1.8
2018-Apr-21 10:00N 47°36' W 052°42'0 0.0 230 / 101002.0 1.4-1.6
2018-Apr-21 09:00N 47°36' W 052°42'0 0.0 230 / 81001.5 1.1-1.6
2018-Apr-21 08:00N 47°36' W 052°42'0 0.0 230 / 81001.2 1.3-1.5
2018-Apr-21 07:00N 47°36' W 052°42'0 0.0 220 / 81001.1 1.5-0.8
2018-Apr-21 06:00N 47°36' W 052°42'0 0.0 230 / 91000.6 1.9-0.9
2018-Apr-21 05:00N 47°36' W 052°42'0 0.0 220 / 101000.1 1.9-0.8
2018-Apr-21 04:00N 47°36' W 052°42'0 0.0 230 / 111000.5 2.2-0.7
2018-Apr-21 03:00N 47°36' W 052°42'0 0.0 230 / 101000.8 2.7-0.1
2018-Apr-21 02:00N 47°36' W 052°42'0 0.0 220 / 101000.7 2.9 0.2
2018-Apr-21 01:00N 47°36' W 052°42'0 0.0 220 / 101001.3 3.2 0.6
2018-Apr-21 00:00N 47°36' W 052°42'317.2 220 / 71001.5 3.3 0.9
2018-Apr-20 23:51N 47°33' W 052°42'3 3.0
2018-Apr-20 23:00N 47°36' W 052°42'0 0.0 220 / 71001.9 4.2 1.7
2018-Apr-20 22:00N 47°36' W 052°42'0 0.0 230 / 101001.8 5.2 2.4
2018-Apr-20 21:00N 47°36' W 052°42'0 0.0 360 / 21001.6 0.9 0.9
2018-Apr-20 20:00N 47°36' W 052°42'0 0.0 040 / 41002.2 0.3 0.2
2018-Apr-20 18:00N 47°36' W 052°42'0 0.0 020 / 71003.5 -0.3-0.5
2018-Apr-20 17:00N 47°36' W 052°42'0 0.0 050 / 91004.3 0.2-0.1
2018-Apr-20 16:00N 47°36' W 052°42'0 0.0 050 / 101004.4 -0.0-0.2
2018-Apr-20 15:00N 47°36' W 052°42'0 0.0 050 / 81006.3 -0.1-0.4
2018-Apr-20 14:00N 47°36' W 052°42'0 0.0 050 / 111006.5 -0.1-0.5
2018-Apr-20 13:00N 47°36' W 052°42'0 0.0 050 / 91007.6 -0.1-0.4
2018-Apr-20 12:00N 47°36' W 052°42'0 0.0 050 / 101007.6 0.2-0.2
2018-Apr-20 11:00N 47°36' W 052°42'0 0.0 060 / 61008.2 1.2-0.0
2018-Apr-20 10:00N 47°36' W 052°42'0 0.0 060 / 61008.9 1.1-0.0
2018-Apr-20 08:00N 47°36' W 052°42'0 0.0 230 / 11009.6 1.5 0.2
2018-Apr-20 07:00N 47°36' W 052°42'0 0.0 230 / 31009.7 2.4-0.2
2018-Apr-20 06:00N 47°36' W 052°42'0 0.0 220 / 41010.2 2.4-0.2
2018-Apr-20 05:00N 47°36' W 052°42'0 0.0 240 / 21009.9 1.7-0.6
2018-Apr-20 04:00N 47°36' W 052°42'0 0.0 210 / 11009.6 2.5-0.1
2018-Apr-20 03:00N 47°36' W 052°42'320.2 210 / 21009.8 3.5 0.2
2018-Apr-20 02:52N 47°33' W 052°42'0 0.1
2018-Apr-20 02:23N 47°34' W 052°42'2 6.4
2018-Apr-20 02:00N 47°36' W 052°42'1414.5 250 / 141008.8 2.9-0.1 0.9
2018-Apr-20 01:00N 47°24' W 052°30'1312.7 210 / 101009.7 1.6-0.0 1.0
2018-Apr-20 00:00N 47°12' W 052°24'1818.5 250 / 141009.9 1.3 0.2 1.1
2018-Apr-19 23:00N 46°54' W 052°18'1312.7 220 / 261009.7 0.9 0.3 1.4
2018-Apr-19 22:00N 46°42' W 052°12'1312.7 220 / 251009.4 0.9 0.2 1.4
2018-Apr-19 21:00N 46°30' W 052°06'1212.0 220 / 251009.1 1.8 0.5 1.8
2018-Apr-19 20:00N 46°18' W 052°06'1514.6 220 / 221009.2 2.4 0.9 1.9
2018-Apr-19 19:00N 46°06' W 051°54'1212.0 220 / 261009.8 2.5 1.0 2.8
2018-Apr-19 18:00N 45°54' W 051°54'1312.7 230 / 251010.0 2.9 1.0 3.2
2018-Apr-19 17:00N 45°42' W 051°48'1818.5 230 / 211010.1 2.8 1.1 3.0
2018-Apr-19 16:00N 45°24' W 051°42'1312.7 240 / 221010.1 3.4 1.0 3.5
2018-Apr-19 15:00N 45°12' W 051°36'1818.5 240 / 141010.0 3.3 1.8 3.3
2018-Apr-19 14:00N 44°54' W 051°30'0 0.0 240 / 201009.7 3.9 2.8 2.8
2018-Apr-19 13:00N 44°54' W 051°30'0 0.0 220 / 151009.4 3.7 3.6 2.9
2018-Apr-19 12:00N 44°54' W 051°30'1514.7 220 / 131008.2 3.7 3.5 2.8
2018-Apr-19 11:00N 45°06' W 051°42'1010.4 190 / 71008.0 3.0 2.9 3.4
2018-Apr-19 10:00N 45°12' W 051°54'1514.7 210 / 81007.7 3.6 3.3 3.5
2018-Apr-19 09:00N 45°24' W 052°06'1414.0 210 / 161006.6 3.3 2.8 3.3
2018-Apr-19 08:00N 45°30' W 052°24'1514.6 220 / 141005.6 3.1 2.7 3.1
2018-Apr-19 07:00N 45°42' W 052°36'1514.6 220 / 211005.2 3.1 2.7 3.0
2018-Apr-19 06:00N 45°54' W 052°48'1312.7 220 / 201004.7 3.1 2.5 2.7
2018-Apr-19 05:00N 46°06' W 052°54'1413.8 230 / 241004.6 2.7 2.1 1.7
2018-Apr-19 04:00N 46°12' W 053°12'1514.6 210 / 231003.5 1.8 1.2 2.0
2018-Apr-19 03:00N 46°24' W 053°24'1010.2 230 / 191002.9 1.9 1.5 2.2
2018-Apr-19 02:00N 46°30' W 053°36'8 8.3 250 / 101002.7 1.7 1.2 2.3
2018-Apr-19 01:00N 46°30' W 053°48'1212.0 240 / 191001.8 1.7 1.1 2.4
2018-Apr-19 00:00N 46°42' W 053°48'7 7.3 240 / 231001.2 1.9 1.4 2.5
2018-Apr-18 23:00N 46°48' W 053°42'6 6.0 270 / 131000.5 1.9 1.5 2.8
2018-Apr-18 22:00N 46°54' W 053°42'1312.7 250 / 23999.3 4.2 0.7 3.2
2018-Apr-18 21:00N 47°06' W 053°36'0 0.0 220 / 14998.5 2.4 2.3 4.0
2018-Apr-18 20:00N 47°06' W 053°36'0 0.0 200 / 16998.8 3.0 3.0
2018-Apr-18 19:00N 47°06' W 053°36'0 0.0 200 / 17998.8 4.0 3.9
2018-Apr-18 18:00N 47°06' W 053°36'0 0.0 230 / 13999.1 5.9 5.7
2018-Apr-18 17:00N 47°06' W 053°36'0 0.0 200 / 51000.1 7.2 6.7
2018-Apr-18 16:00N 47°06' W 053°36'0 0.0 150 / 211000.8 7.1 6.3
2018-Apr-18 14:00N 47°06' W 053°36'0 0.0 140 / 251003.1 4.1 3.5
2018-Apr-18 13:00N 47°06' W 053°36'0 0.0 120 / 321003.9 3.3 2.8 3.6
2018-Apr-18 12:00N 47°06' W 053°36'0 0.0 120 / 301005.8 2.2 1.6
2018-Apr-18 09:00N 47°06' W 053°36'0 0.0 110 / 131012.1 1.4-0.3
2018-Apr-18 08:00N 47°06' W 053°36'0 0.0 130 / 61014.4 1.5-1.2
2018-Apr-18 07:00N 47°06' W 053°36'0 0.0 150 / 131015.3 2.4-5.3
2018-Apr-18 06:00N 47°06' W 053°36'0 0.0 140 / 101017.0 2.2-6.0
2018-Apr-18 05:00N 47°06' W 053°36'0 0.0 150 / 71017.9 1.7-5.3
2018-Apr-18 04:00N 47°06' W 053°36'0 0.0 140 / 71018.6 1.2-5.7
2018-Apr-18 03:00N 47°06' W 053°36'0 0.0 120 / 71019.8 0.9-4.5
2018-Apr-18 02:00N 47°06' W 053°36'0 0.0 110 / 91020.4 0.8-3.5
2018-Apr-18 01:00N 47°06' W 053°36'0 0.0 120 / 71021.3 0.8-3.4
2018-Apr-18 00:00N 47°06' W 053°36'0 0.0 120 / 111021.4 1.1-3.4 4.9
2018-Apr-17 23:00N 47°06' W 053°36'6 6.0 140 / 51021.5 2.8-8.0
2018-Apr-17 22:00N 47°00' W 053°36'7 3.6 170 / 81021.6 1.0-3.3 3.9
2018-Apr-17 20:00N 46°54' W 053°42'6 6.0 220 / 131022.0 0.7-2.8 3.7
2018-Apr-17 19:00N 46°48' W 053°42'1312.7 230 / 131023.0 1.0-3.4 3.3
2018-Apr-17 18:00N 46°36' W 053°36'1413.7 240 / 111022.8 0.9-4.2 3.4
2018-Apr-17 17:00N 46°42' W 053°18'0 0.0 230 / 191022.1 1.1-4.2 3.5
2018-Apr-17 16:00N 46°42' W 053°18'10 5.1 220 / 141022.9 1.9-5.5 3.5
2018-Apr-17 14:00N 46°36' W 053°30'0 0.0 280 / 121023.9 1.7-7.4 2.9
2018-Apr-17 13:00N 46°36' W 053°30'8 8.2 280 / 131024.3 0.1-5.0 2.9
2018-Apr-17 12:00N 46°36' W 053°42'4 4.1 290 / 101024.2 -0.3-5.3 2.9
2018-Apr-17 11:00N 46°36' W 053°36'1010.2 300 / 91024.2 -0.0-4.7 3.0
2018-Apr-17 10:00N 46°42' W 053°24'4 4.1 280 / 41024.4 -0.8-4.7 3.1
2018-Apr-17 09:00N 46°42' W 053°18'0 0.0 340 / 11024.4 -3.0-5.2
2018-Apr-17 08:00N 46°42' W 053°18'0 0.0 010 / 11024.4 -3.2-5.5
2018-Apr-17 07:00N 46°42' W 053°18'0 0.0 040 / 51024.5 -2.5-4.9
2018-Apr-17 06:00N 46°42' W 053°18'0 0.0 340 / 101024.3 -1.2-5.0
2018-Apr-17 05:00N 46°42' W 053°18'0 0.0 340 / 51024.7 -1.0-4.0 3.7
2018-Apr-17 04:00N 46°42' W 053°18'0 0.0 310 / 101024.6 -0.1-3.4 3.6
2018-Apr-17 03:00N 46°42' W 053°18'7 7.3 360 / 41024.6 -0.1-3.7
2018-Apr-17 02:00N 46°36' W 053°24'8 8.2 300 / 141025.2 0.4-3.2 2.9
2018-Apr-17 01:00N 46°36' W 053°36'1413.7 290 / 131025.9 0.9-2.1 2.9
2018-Apr-17 00:00N 46°42' W 053°54'1817.5 290 / 51026.0 1.3-2.8 3.0
2018-Apr-16 23:00N 46°48' W 054°18'7 7.3 290 / 171025.5 1.5-3.1 2.6
2018-Apr-16 22:00N 46°54' W 054°12'0 0.0 280 / 141025.4 1.6-3.2 3.2
2018-Apr-16 21:00N 46°54' W 054°12'4 4.1 280 / 141025.4 2.4-3.3 2.6
2018-Apr-16 20:00N 46°54' W 054°18'0 0.0 280 / 131025.3 2.4-3.5 2.8
2018-Apr-16 19:00N 46°54' W 054°18'0 0.0 290 / 141025.9 2.2-3.4 3.0
2018-Apr-16 18:00N 46°54' W 054°18'0 0.0 280 / 131026.5 1.7-3.4 3.0
2018-Apr-16 17:00N 46°54' W 054°18'4 4.1 290 / 181026.5 1.0-3.8 2.9
2018-Apr-16 16:00N 46°54' W 054°12'7 7.3 300 / 211026.9 1.0-3.9 3.0
2018-Apr-16 15:00N 46°48' W 054°18'1212.3 310 / 181027.1 0.8-3.9 2.9
2018-Apr-16 14:00N 46°48' W 054°00'4 4.1 310 / 51028.3 1.4-3.2 3.0
2018-Apr-16 13:00N 46°48' W 054°06'1010.2 300 / 211027.5 -0.3-4.1 3.0
2018-Apr-16 12:00N 46°54' W 053°54'0 0.0 290 / 201028.1 0.5-6.0
2018-Apr-16 11:00N 46°54' W 053°54'0 0.0 300 / 161028.5 -0.3-5.8 3.2
2018-Apr-16 10:00N 46°54' W 053°54'7 7.3 300 / 41028.7 -1.1-5.0 3.0
2018-Apr-16 09:00N 46°48' W 053°48'6 6.0 300 / 131028.9 -1.0-4.3 3.1
2018-Apr-16 08:00N 46°54' W 053°48'0 0.0 320 / 161028.7 -0.4-4.3 3.0
2018-Apr-16 07:00N 46°54' W 053°48'6 6.0 330 / 161028.2 -0.4-5.2 3.0
2018-Apr-16 06:00N 46°48' W 053°48'6 6.0 330 / 171028.2 -0.1-4.9 3.0
2018-Apr-16 05:00N 46°42' W 053°48'4 4.1 350 / 171028.1 0.1-5.3 3.0
2018-Apr-16 04:00N 46°42' W 053°54'7 7.3 350 / 241028.0 0.4-5.4 3.0
2018-Apr-16 03:00N 46°48' W 053°48'6 6.0 020 / 51027.5 0.6-4.7 3.0
2018-Apr-16 02:00N 46°54' W 053°48'0 0.0 010 / 61026.9 1.0-4.8 3.1
2018-Apr-16 01:00N 46°54' W 053°48'1312.7 350 / 221025.3 0.6-5.4 2.9
2018-Apr-16 00:00N 46°42' W 053°54'1312.7 360 / 281024.8 0.8-5.3 2.8
2018-Apr-15 23:00N 46°30' W 054°00'6 6.0 340 / 221024.6 1.1-3.9 2.8
2018-Apr-15 22:00N 46°36' W 054°00'1312.7 350 / 161023.4 2.0-3.8 2.9
2018-Apr-15 21:00N 46°48' W 053°54'0 0.0 340 / 261021.7 1.9-5.5 2.9
2018-Apr-15 20:00N 46°48' W 053°54'6 6.0 340 / 231019.7 2.5-5.5 2.9
2018-Apr-15 19:00N 46°54' W 053°54'4 4.1 330 / 261018.5 2.7-6.1 3.1
2018-Apr-15 18:00N 46°54' W 053°48'8 8.2 320 / 271017.4 2.2-5.8 3.2
2018-Apr-15 17:00N 46°54' W 053°36'4 4.1 300 / 241016.7 1.4-5.7 3.5
2018-Apr-15 16:00N 46°54' W 053°30'13 6.3 290 / 201016.7 0.1-7.4 3.5
2018-Apr-15 14:00N 47°06' W 053°36'0 0.0 300 / 181015.3 -0.9-9.0
2018-Apr-15 13:00N 47°06' W 053°36'0 0.0 320 / 201014.5 -2.2-9.6
2018-Apr-15 12:00N 47°06' W 053°36'0 0.0 300 / 181013.7 -3.1-9.9
2018-Apr-15 11:00N 47°06' W 053°36'0 0.0 300 / 251012.2 -3.5-10.1
2018-Apr-15 10:00N 47°06' W 053°36'0 0.0 310 / 201011.9 -4.1-10.5
2018-Apr-15 09:00N 47°06' W 053°36'0 0.0 320 / 121011.0 -4.0-9.8
2018-Apr-15 08:00N 47°06' W 053°36'0 0.0 300 / 251007.6 -3.6-9.4
2018-Apr-15 07:00N 47°06' W 053°36'0 0.0 290 / 321006.8 -3.4-10.5
2018-Apr-15 06:00N 47°06' W 053°36'0 0.0 300 / 301005.8 -3.1-9.7
2018-Apr-15 05:00N 47°06' W 053°36'0 0.0 300 / 281005.1 -3.1-9.1
2018-Apr-15 04:00N 47°06' W 053°36'0 0.0 290 / 301003.7 -3.1-9.2
2018-Apr-15 03:00N 47°06' W 053°36'0 0.0 300 / 291002.8 -3.2-9.2
2018-Apr-15 02:00N 47°06' W 053°36'0 0.0 280 / 301002.3 -3.3-9.7
2018-Apr-15 01:00N 47°06' W 053°36'0 0.0 290 / 321002.3 -3.1-10.2
2018-Apr-15 00:00N 47°06' W 053°36'0 0.0 290 / 301001.8 -2.8-11.0
2018-Apr-14 23:00N 47°06' W 053°36'0 0.0 280 / 321000.0 -2.1-10.0
2018-Apr-14 22:00N 47°06' W 053°36'0 0.0 280 / 27999.4 -0.3-6.8
2018-Apr-14 21:00N 47°06' W 053°36'0 0.0 270 / 27998.9 0.2-2.2
2018-Apr-14 20:00N 47°06' W 053°36'0 0.0 240 / 28998.2 2.8 1.0
2018-Apr-14 19:00N 47°06' W 053°36'0 0.0 220 / 28999.1 2.5 0.7
2018-Apr-14 18:00N 47°06' W 053°36'0 0.0 210 / 281001.3 2.3 0.5
2018-Apr-14 17:00N 47°06' W 053°36'0 0.0 210 / 251003.6 1.5 0.5
2018-Apr-14 16:00N 47°06' W 053°36'0 0.0 220 / 191005.2 1.8 0.4
2018-Apr-14 15:00N 47°06' W 053°36'0 0.0 240 / 161006.3 2.6-0.0
2018-Apr-14 14:00N 47°06' W 053°36'0 0.0 260 / 201007.1 1.9-0.9
2018-Apr-14 13:00N 47°06' W 053°36'0 0.0 260 / 161007.7 1.1-0.9
2018-Apr-14 12:00N 47°06' W 053°36'0 0.0 260 / 141008.1 1.0-0.9 4.1
2018-Apr-14 11:00N 47°06' W 053°36'1514.5 260 / 211007.4 0.7-1.0 3.5
2018-Apr-14 10:00N 46°54' W 053°48'6 6.0 260 / 221007.5 0.5-0.6 3.4
2018-Apr-14 09:00N 46°48' W 053°48'0 0.0 280 / 291007.1 0.4 0.1 3.0
2018-Apr-14 08:00N 46°48' W 053°48'6 6.0 270 / 281006.4 0.5 0.3 3.1
2018-Apr-14 07:00N 46°54' W 053°48'0 0.0 260 / 241006.5 0.7 0.6 3.1
2018-Apr-14 06:00N 46°54' W 053°48'6 6.0 240 / 191006.4 1.4 1.3 3.0
2018-Apr-14 05:00N 46°48' W 053°48'0 0.0 220 / 191006.8 1.4 1.3 3.1
2018-Apr-14 04:00N 46°48' W 053°48'1312.7 200 / 61007.9 1.7 1.7 3.0
2018-Apr-14 03:00N 46°36' W 053°54'0 0.0 170 / 101008.7 0.8 0.7 2.9
2018-Apr-14 02:00N 46°36' W 053°54'1212.4 150 / 301009.5 0.4 0.4 2.9
2018-Apr-14 01:00N 46°36' W 054°12'8 8.2 150 / 331011.0 0.2 0.1 2.9
2018-Apr-14 00:00N 46°36' W 054°24'1010.2 140 / 331011.6 -0.2-0.3 2.6
2018-Apr-13 23:00N 46°42' W 054°36'4 4.1 150 / 311013.3 -0.3-0.4 2.9
2018-Apr-13 22:00N 46°42' W 054°42'8 8.2 150 / 311014.7 -0.4-0.4 3.1
2018-Apr-13 21:00N 46°42' W 054°54'8 8.2
2018-Apr-13 20:00N 46°42' W 055°06'1212.3 150 / 221017.2 0.9-1.2 3.2
2018-Apr-13 19:00N 46°42' W 055°24'   160 / 231018.1 1.0-0.9 3.3

Dump ship's entire track history